Time;durP1;ratioP1;P1;durP2;ratioP2;P2;SDS_P1;SDS_P2;PMS_P1;PMS_P2;Temp;Humidity;BMP_temperature;BMP_pressure;BME280_temperature;BME280_humidity;BME280_pressure;Samples;Min_cycle;Max_cycle;Signal;HPM_P1;HPM_P2
2023/07/15 00:00:23;;;;;;;0.50;0.20;;;;;;;20.03;71.51;100205.15;91195;1270;138835;-68
2023/07/15 00:02:25;;;;;;;3.80;0.50;;;;;;;19.95;71.89;100205.49;91412;1272;22377;-69
2023/07/15 00:04:29;;;;;;;1.30;0.20;;;;;;;19.89;71.83;100206.63;91204;1270;138948;-69
2023/07/15 00:06:31;;;;;;;0.40;0.20;;;;;;;19.91;71.93;100212.75;91273;1264;22992;-67
2023/07/15 00:08:33;;;;;;;1.30;0.30;;;;;;;19.90;71.87;100213.19;91161;1270;138429;-70
2023/07/15 00:10:37;;;;;;;5.60;0.50;;;;;;;19.90;71.97;100214.16;91420;1270;22349;-70
2023/07/15 00:12:38;;;;;;;0.20;0.20;;;;;;;19.89;72.05;100212.20;91322;1270;138983;-70
2023/07/15 00:14:40;;;;;;;0.40;0.30;;;;;;;19.89;72.13;100211.66;91370;1270;22776;-69
2023/07/15 00:16:42;;;;;;;3.00;0.20;;;;;;;19.91;71.92;100213.80;91299;1270;138581;-69
2023/07/15 00:18:45;;;;;;;2.60;0.30;;;;;;;19.92;72.12;100218.34;91376;1270;23078;-70
2023/07/15 00:20:47;;;;;;;1.00;0.40;;;;;;;19.91;72.11;100219.14;91264;1273;138403;-69
2023/07/15 00:22:49;;;;;;;3.00;0.30;;;;;;;19.89;72.16;100224.25;91372;1270;22290;-70
2023/07/15 00:24:51;;;;;;;0.90;0.30;;;;;;;19.86;72.37;100221.52;91245;1270;137553;-69
2023/07/15 00:26:53;;;;;;;1.20;0.50;;;;;;;19.83;72.50;100226.74;91397;1270;22275;-69
2023/07/15 00:28:55;;;;;;;1.80;0.30;;;;;;;19.80;72.74;100229.36;91182;1258;138621;-69
2023/07/15 00:30:57;;;;;;;0.30;0.30;;;;;;;19.79;72.77;100234.96;91358;1270;22093;-69
2023/07/15 00:32:59;;;;;;;1.30;0.40;;;;;;;19.76;72.95;100237.03;91268;1269;138570;-69
2023/07/15 00:35:01;;;;;;;0.40;0.20;;;;;;;19.74;73.10;100234.29;91390;1270;22203;-69
2023/07/15 00:37:03;;;;;;;2.80;0.20;;;;;;;19.70;73.34;100233.36;91315;1255;139720;-69
2023/07/15 00:39:04;;;;;;;1.50;0.30;;;;;;;19.66;73.55;100233.63;91398;1271;22213;-68
2023/07/15 00:41:18;;;;;;;0.40;0.30;;;;;;;19.64;73.88;100236.46;91290;1273;138122;-68
2023/07/15 00:43:58;;;;;;;2.10;0.30;;;;;;;19.56;73.88;100224.69;91404;1270;23229;-69
2023/07/15 00:46:16;;;;;;;1.60;0.40;;;;;;;19.56;74.32;100237.13;91112;1270;137397;-68
2023/07/15 00:48:26;;;;;;;1.80;0.40;;;;;;;19.51;74.53;100233.55;91299;1269;139189;-69
2023/07/15 00:50:27;;;;;;;0.20;0.20;;;;;;;19.48;74.54;100236.37;91274;1254;22216;-69
2023/07/15 00:52:30;;;;;;;1.40;0.70;;;;;;;19.46;74.80;100237.70;91299;1270;137256;-68
2023/07/15 00:54:35;;;;;;;1.80;0.50;;;;;;;19.38;74.90;100225.80;91413;1273;22364;-69
2023/07/15 00:56:39;;;;;;;1.60;0.50;;;;;;;19.34;74.89;100225.44;91239;1270;138205;-69
2023/07/15 00:58:41;;;;;;;0.90;0.30;;;;;;;19.38;75.14;100232.19;91371;1270;22183;-69
2023/07/15 01:00:42;;;;;;;0.50;0.30;;;;;;;19.37;75.43;100231.52;91313;1269;138076;-68
2023/07/15 01:02:45;;;;;;;2.50;0.40;;;;;;;19.39;75.32;100236.23;91425;1269;22290;-68
2023/07/15 01:04:47;;;;;;;1.20;0.40;;;;;;;19.41;75.52;100235.52;91182;1254;137617;-68
2023/07/15 01:06:49;;;;;;;0.70;0.40;;;;;;;19.41;75.27;100239.52;91392;1268;23105;-69
2023/07/15 01:08:51;;;;;;;1.00;0.30;;;;;;;19.42;75.20;100239.20;91276;1269;138640;-69
2023/07/15 01:10:53;;;;;;;1.60;0.20;;;;;;;19.42;75.10;100238.45;91261;1270;22257;-69
2023/07/15 01:12:59;;;;;;;1.60;0.50;;;;;;;19.41;75.30;100239.67;91221;1257;137390;-69
2023/07/15 01:15:00;;;;;;;3.50;0.50;;;;;;;19.38;75.29;100238.35;91370;1271;23067;-70
2023/07/15 01:17:05;;;;;;;0.20;0.20;;;;;;;19.36;75.40;100242.58;91265;1264;137576;-69
2023/07/15 01:19:08;;;;;;;0.50;0.50;;;;;;;19.32;75.55;100245.16;91449;1269;22297;-69
2023/07/15 01:21:12;;;;;;;1.10;0.50;;;;;;;19.28;75.90;100250.41;91331;1269;138727;-68
2023/07/15 01:23:14;;;;;;;1.50;0.40;;;;;;;19.24;76.10;100249.18;91406;1269;22363;-68
2023/07/15 01:25:15;;;;;;;1.10;0.50;;;;;;;19.06;76.50;100230.48;91243;1270;137792;-70
2023/07/15 01:27:18;;;;;;;1.10;0.60;;;;;;;19.17;76.50;100241.61;91280;1270;22429;-68
2023/07/15 01:29:20;;;;;;;0.90;0.70;;;;;;;19.24;76.43;100256.69;91252;1269;137777;-68
2023/07/15 01:31:21;;;;;;;2.20;0.70;;;;;;;19.22;76.86;100257.58;91286;1259;23994;-68
2023/07/15 01:33:24;;;;;;;1.70;0.60;;;;;;;19.19;76.98;100256.58;91285;1269;138224;-68
2023/07/15 01:35:26;;;;;;;2.10;0.50;;;;;;;19.15;77.02;100257.41;91347;1270;22254;-67
2023/07/15 01:37:28;;;;;;;2.00;0.50;;;;;;;19.12;77.45;100253.96;91302;1266;137750;-68
2023/07/15 01:39:31;;;;;;;3.00;0.70;;;;;;;19.11;77.63;100255.23;91418;1257;22303;-68
2023/07/15 01:41:34;;;;;;;1.10;0.50;;;;;;;19.08;77.51;100256.52;91265;1269;138695;-68
2023/07/15 01:43:35;;;;;;;1.60;0.60;;;;;;;19.06;77.82;100255.01;91301;1270;22211;-68
2023/07/15 01:45:39;;;;;;;1.10;0.40;;;;;;;19.08;78.07;100257.52;91296;1269;138967;-67
2023/07/15 01:47:41;;;;;;;0.70;0.40;;;;;;;19.08;78.06;100260.17;91380;1264;22334;-68
2023/07/15 01:49:43;;;;;;;2.10;0.90;;;;;;;19.06;78.41;100261.21;91148;1264;138749;-67
2023/07/15 01:51:45;;;;;;;1.60;0.80;;;;;;;19.06;78.72;100262.46;91384;1269;22306;-69
2023/07/15 01:53:46;;;;;;;2.60;0.50;;;;;;;19.06;78.86;100264.41;91345;1269;137771;-68
2023/07/15 01:55:48;;;;;;;1.30;1.20;;;;;;;19.04;78.96;100269.45;91272;1270;22376;-68
2023/07/15 01:57:49;;;;;;;3.60;0.40;;;;;;;19.01;79.30;100277.52;91147;1270;138839;-68
2023/07/15 01:59:57;;;;;;;1.90;0.60;;;;;;;18.98;79.39;100277.30;91279;1260;22217;-68
2023/07/15 02:01:59;;;;;;;4.10;1.00;;;;;;;18.96;79.52;100277.87;91235;1270;137586;-70
2023/07/15 02:04:01;;;;;;;0.90;0.50;;;;;;;18.95;79.35;100279.41;91398;1270;22979;-69
2023/07/15 02:06:04;;;;;;;1.70;0.70;;;;;;;18.94;79.47;100278.70;91418;1257;22202;-69
2023/07/15 02:08:06;;;;;;;1.10;0.80;;;;;;;18.95;79.45;100282.01;91302;1269;138827;-69
2023/07/15 02:10:08;;;;;;;2.10;0.90;;;;;;;18.93;79.28;100282.52;91344;1267;22240;-67
2023/07/15 02:12:10;;;;;;;1.20;0.90;;;;;;;18.90;79.39;100283.55;91275;1269;139021;-67
2023/07/15 02:14:12;;;;;;;1.70;1.30;;;;;;;18.89;79.67;100287.84;91394;1270;22352;-67
2023/07/15 02:16:13;;;;;;;2.50;0.90;;;;;;;18.88;79.95;100291.66;91205;1262;138394;-68
2023/07/15 02:18:16;;;;;;;0.70;0.50;;;;;;;18.91;79.71;100287.77;91329;1270;23022;-67
2023/07/15 02:20:19;;;;;;;0.80;0.70;;;;;;;18.93;79.64;100287.96;91274;1270;139452;-68
2023/07/15 02:22:20;;;;;;;4.10;1.00;;;;;;;18.94;79.68;100286.20;91306;1267;22826;-67
2023/07/15 02:24:22;;;;;;;2.60;0.60;;;;;;;18.93;79.66;100285.92;91272;1270;137773;-67
2023/07/15 02:26:24;;;;;;;3.80;1.80;;;;;;;18.93;79.62;100285.80;91416;1270;22405;-66
2023/07/15 02:28:27;;;;;;;3.40;0.70;;;;;;;18.91;79.50;100290.58;91290;1270;137545;-67
2023/07/15 02:30:29;;;;;;;4.10;1.40;;;;;;;18.93;79.66;100293.20;91363;1269;22216;-68
2023/07/15 02:32:39;;;;;;;1.30;0.70;;;;;;;18.97;79.73;100297.81;91286;1261;139205;-68
2023/07/15 02:34:42;;;;;;;3.70;1.30;;;;;;;19.05;79.84;100296.70;91329;1270;22263;-67
2023/07/15 02:36:43;;;;;;;1.80;0.70;;;;;;;19.20;79.84;100300.55;91261;1269;137597;-69
2023/07/15 02:38:45;;;;;;;1.70;0.80;;;;;;;19.36;79.15;100297.45;91329;1270;22353;-67
2023/07/15 02:40:48;;;;;;;0.80;0.80;;;;;;;19.43;78.61;100296.36;91327;1269;137232;-68
2023/07/15 02:42:50;;;;;;;1.10;0.40;;;;;;;19.43;78.68;100299.51;91375;1269;22415;-71
2023/07/15 02:44:52;;;;;;;2.00;0.80;;;;;;;19.48;78.66;100303.84;91184;1269;138541;-69
2023/07/15 02:46:53;;;;;;;1.40;0.80;;;;;;;19.51;78.45;100296.86;91275;1270;22327;-69
2023/07/15 02:48:55;;;;;;;2.80;0.80;;;;;;;19.62;77.89;100299.60;91167;1267;138591;-69
2023/07/15 02:50:56;;;;;;;1.00;0.90;;;;;;;19.76;77.49;100310.86;91356;1261;23057;-69
2023/07/15 02:52:58;;;;;;;2.30;0.80;;;;;;;19.77;77.04;100310.66;91231;1269;138457;-70
2023/07/15 02:55:03;;;;;;;1.10;0.80;;;;;;;19.75;77.33;100312.13;91428;1276;22236;-70
2023/07/15 02:57:05;;;;;;;1.50;0.90;;;;;;;19.75;77.50;100314.46;91200;1270;138006;-71
2023/07/15 02:59:07;;;;;;;1.90;0.90;;;;;;;19.85;77.57;100316.11;91424;1273;22452;-70
2023/07/15 03:01:09;;;;;;;4.50;0.60;;;;;;;20.11;76.99;100316.33;91304;1269;137542;-70
2023/07/15 03:03:11;;;;;;;1.20;0.60;;;;;;;20.48;75.95;100316.98;91363;1269;22391;-69
2023/07/15 03:05:15;;;;;;;3.20;0.80;;;;;;;20.86;74.45;100314.86;91261;1253;139079;-69
2023/07/15 03:07:18;;;;;;;0.60;0.40;;;;;;;21.26;72.72;100315.36;91371;1270;22322;-69
2023/07/15 03:09:20;;;;;;;2.90;1.40;;;;;;;21.63;71.41;100316.54;91273;1273;137742;-70
2023/07/15 03:11:22;;;;;;;1.20;0.70;;;;;;;22.01;69.43;100316.80;91425;1269;22228;-70
2023/07/15 03:13:25;;;;;;;0.60;0.40;;;;;;;22.35;67.51;100322.06;91326;1269;139036;-70
2023/07/15 03:15:27;;;;;;;0.50;0.40;;;;;;;22.59;66.45;100320.88;91250;1270;22915;-69
2023/07/15 03:17:35;;;;;;;3.10;0.70;;;;;;;22.87;65.62;100320.38;91306;1270;138312;-68
2023/07/15 03:19:37;;;;;;;0.70;0.40;;;;;;;23.22;64.34;100319.52;91437;1269;22339;-68
2023/07/15 03:21:39;;;;;;;2.20;0.60;;;;;;;23.55;62.95;100315.13;91303;1273;138101;-69
2023/07/15 03:23:42;;;;;;;1.00;0.80;;;;;;;23.71;61.86;100304.17;91254;1270;22306;-69
2023/07/15 03:25:44;;;;;;;0.90;0.60;;;;;;;23.97;60.81;100316.13;91286;1269;137771;-68
2023/07/15 03:27:46;;;;;;;1.30;0.50;;;;;;;24.10;60.00;100315.59;91391;1270;23130;-69
2023/07/15 03:29:49;;;;;;;1.60;0.30;;;;;;;24.15;59.75;100316.77;91149;1267;137747;-69
2023/07/15 03:31:51;;;;;;;0.70;0.40;;;;;;;24.23;59.76;100311.21;91364;1269;22944;-69
2023/07/15 03:33:53;;;;;;;0.60;0.60;;;;;;;24.36;58.45;100315.23;91186;1270;138359;-70
2023/07/15 03:35:55;;;;;;;1.70;0.50;;;;;;;24.37;57.69;100314.36;91382;1269;23051;-70
2023/07/15 03:37:56;;;;;;;0.60;0.60;;;;;;;24.31;58.33;100307.80;91135;1263;137348;-69
2023/07/15 03:39:58;;;;;;;0.90;0.40;;;;;;;24.29;58.19;100305.42;91290;1258;22759;-69
2023/07/15 03:42:00;;;;;;;0.90;0.40;;;;;;;24.32;58.04;100307.48;91264;1269;138589;-69
2023/07/15 03:44:03;;;;;;;2.40;0.70;;;;;;;24.33;58.19;100308.55;91400;1269;22189;-69
2023/07/15 03:46:04;;;;;;;1.30;0.50;;;;;;;24.42;58.32;100311.17;91259;1270;23233;-67
2023/07/15 03:48:06;;;;;;;2.80;0.70;;;;;;;24.57;57.85;100317.20;91185;1270;137596;-69
2023/07/15 03:50:09;;;;;;;2.70;0.90;;;;;;;24.66;57.26;100315.04;91317;1271;22401;-68
2023/07/15 03:52:11;;;;;;;2.70;0.40;;;;;;;24.67;57.63;100316.39;91176;1272;140045;-68
2023/07/15 03:54:13;;;;;;;1.60;0.40;;;;;;;24.73;57.47;100317.65;91388;1269;23019;-70
2023/07/15 03:56:14;;;;;;;2.70;0.60;;;;;;;24.74;56.95;100319.00;91258;1269;139081;-69
2023/07/15 03:58:16;;;;;;;1.80;0.80;;;;;;;24.68;57.13;100318.94;91340;1270;22728;-68
2023/07/15 04:00:18;;;;;;;3.20;0.70;;;;;;;24.68;57.35;100321.00;91294;1270;138286;-68
2023/07/15 04:02:20;;;;;;;1.90;0.80;;;;;;;24.73;57.71;100324.36;91172;1269;23126;-68
2023/07/15 04:04:22;;;;;;;1.30;0.50;;;;;;;24.80;57.98;100326.33;91259;1269;138434;-68
2023/07/15 04:06:24;;;;;;;1.80;0.50;;;;;;;24.89;57.52;100327.29;91337;1269;22344;-68
2023/07/15 04:08:25;;;;;;;1.40;0.40;;;;;;;25.00;57.05;100328.02;91220;1268;139058;-68
2023/07/15 04:10:29;;;;;;;0.70;0.50;;;;;;;25.09;56.52;100326.43;91384;1269;22363;-69
2023/07/15 04:12:30;;;;;;;2.80;0.30;;;;;;;25.05;56.65;100329.08;91133;1270;137457;-69
2023/07/15 04:14:32;;;;;;;2.70;0.30;;;;;;;24.95;57.17;100327.91;91209;1270;23216;-68
2023/07/15 04:16:33;;;;;;;1.90;0.70;;;;;;;24.90;57.19;100326.64;91269;1269;138332;-69
2023/07/15 04:18:35;;;;;;;2.30;0.50;;;;;;;24.85;56.96;100330.27;91287;1269;22951;-69
2023/07/15 04:20:37;;;;;;;1.50;1.40;;;;;;;24.80;57.11;100333.09;91236;1269;138662;-70
2023/07/15 04:22:39;;;;;;;1.50;1.40;;;;;;;24.78;57.66;100332.94;91235;1254;22352;-69
2023/07/15 04:24:40;;;;;;;5.40;5.00;;;;;;;24.79;57.69;100335.27;91194;1269;139204;-70
2023/07/15 04:26:43;;;;;;;2.20;0.80;;;;;;;24.89;58.46;100338.73;91325;1269;23199;-68
2023/07/15 04:28:44;;;;;;;1.40;0.80;;;;;;;25.04;56.85;100326.91;91149;1269;138806;-68
2023/07/15 04:30:46;;;;;;;3.20;1.80;;;;;;;25.19;57.39;100327.34;91327;1265;22417;-69
2023/07/15 04:32:48;;;;;;;2.10;1.40;;;;;;;25.48;56.48;100340.02;91001;1270;138990;-69
2023/07/15 04:34:50;;;;;;;4.40;2.10;;;;;;;25.68;55.64;100344.29;91292;1269;22233;-70
2023/07/15 04:36:52;;;;;;;1.10;1.00;;;;;;;25.86;54.97;100343.34;91168;1269;139673;-70
2023/07/15 04:38:54;;;;;;;3.50;3.30;;;;;;;26.01;55.07;100344.28;91298;1268;22318;-68
2023/07/15 04:40:55;;;;;;;1.00;0.90;;;;;;;26.19;54.60;100345.37;91233;1269;138871;-69
2023/07/15 04:42:57;;;;;;;1.90;1.50;;;;;;;26.32;52.38;100338.95;91254;1269;22299;-67
2023/07/15 04:44:59;;;;;;;2.70;2.50;;;;;;;26.33;52.26;100343.65;91167;1269;138588;-68
2023/07/15 04:47:01;;;;;;;2.20;1.20;;;;;;;26.30;52.43;100353.70;91303;1269;22133;-69
2023/07/15 04:49:02;;;;;;;4.20;1.60;;;;;;;26.19;52.22;100354.17;91165;1269;138304;-67
2023/07/15 04:51:04;;;;;;;2.40;0.80;;;;;;;26.15;52.46;100354.98;91179;1270;22169;-68
2023/07/15 04:53:06;;;;;;;1.50;1.20;;;;;;;26.14;52.48;100353.77;91238;1269;137691;-68
2023/07/15 04:55:09;;;;;;;3.80;1.30;;;;;;;26.10;52.56;100357.77;91294;1268;22367;-69
2023/07/15 04:57:11;;;;;;;5.00;1.80;;;;;;;26.07;52.85;100358.09;91256;1269;138546;-69
2023/07/15 04:59:13;;;;;;;1.50;0.90;;;;;;;26.12;52.58;100359.22;91382;1270;22263;-68
2023/07/15 05:01:15;;;;;;;2.70;1.40;;;;;;;26.09;52.27;100355.49;91232;1269;138160;-70
2023/07/15 05:03:20;;;;;;;3.50;1.20;;;;;;;25.96;53.01;100354.17;91379;1269;23082;-69
2023/07/15 05:05:21;;;;;;;3.90;1.10;;;;;;;25.87;53.18;100361.56;91221;1269;138593;-69
2023/07/15 05:07:23;;;;;;;1.00;0.90;;;;;;;25.80;53.64;100358.96;91297;1270;22306;-69
2023/07/15 05:09:24;;;;;;;2.30;0.70;;;;;;;25.86;54.02;100355.84;91229;1269;138667;-69
2023/07/15 05:11:26;;;;;;;2.40;1.50;;;;;;;25.94;53.27;100352.20;91344;1269;22442;-69
2023/07/15 05:13:28;;;;;;;3.10;1.10;;;;;;;25.98;53.33;100355.27;91257;1269;138365;-69
2023/07/15 05:15:30;;;;;;;0.80;0.70;;;;;;;25.98;52.77;100354.02;91378;1269;22847;-69
2023/07/15 05:17:31;;;;;;;0.80;0.60;;;;;;;25.99;54.37;100357.36;91147;1269;138457;-68
2023/07/15 05:19:33;;;;;;;1.40;1.20;;;;;;;26.17;53.28;100359.44;91325;1260;22372;-68
2023/07/15 05:21:35;;;;;;;7.80;1.20;;;;;;;26.30;52.58;100360.96;91233;1269;138987;-69
2023/07/15 05:23:36;;;;;;;1.80;0.40;;;;;;;26.32;52.09;100362.36;91322;1262;23971;-68
2023/07/15 05:25:38;;;;;;;5.00;1.40;;;;;;;26.38;52.42;100361.94;91246;1269;138710;-68
2023/07/15 05:27:40;;;;;;;1.90;1.50;;;;;;;26.50;51.58;100360.42;91343;1269;22352;-69
2023/07/15 05:29:42;;;;;;;2.30;0.50;;;;;;;26.56;51.26;100363.94;91255;1269;140320;-69
2023/07/15 05:31:45;;;;;;;1.90;0.40;;;;;;;26.57;51.27;100363.33;91335;1269;22384;-69
2023/07/15 05:33:47;;;;;;;0.70;0.60;;;;;;;26.61;52.42;100364.55;91194;1269;138549;-70
2023/07/15 05:35:49;;;;;;;1.10;0.40;;;;;;;26.77;52.45;100364.22;91304;1270;22328;-70
2023/07/15 05:37:50;;;;;;;0.80;0.30;;;;;;;26.93;50.64;100364.52;91221;1269;138558;-69
2023/07/15 05:39:52;;;;;;;1.10;0.50;;;;;;;26.93;50.74;100362.95;91315;1269;22355;-69
2023/07/15 05:41:54;;;;;;;0.70;0.30;;;;;;;26.93;49.85;100366.45;91211;1268;139929;-69
2023/07/15 05:43:55;;;;;;;2.80;0.60;;;;;;;26.94;50.17;100359.96;91355;1269;23254;-70
2023/07/15 05:45:57;;;;;;;3.70;0.60;;;;;;;27.07;49.69;100363.59;91258;1269;137952;-68
2023/07/15 05:47:59;;;;;;;2.10;1.10;;;;;;;27.14;49.64;100368.58;91363;1269;22484;-69
2023/07/15 05:50:01;;;;;;;2.20;0.30;;;;;;;27.11;49.49;100366.06;91000;1271;138641;-69
2023/07/15 05:52:03;;;;;;;5.40;0.60;;;;;;;27.05;49.78;100368.02;91095;1270;138758;-69
2023/07/15 05:54:05;;;;;;;1.10;0.30;;;;;;;27.06;49.38;100368.11;91260;1270;22205;-71
2023/07/15 05:56:07;;;;;;;1.20;0.80;;;;;;;27.08;48.92;100365.44;91163;1269;138702;-70
2023/07/15 05:58:11;;;;;;;2.20;0.50;;;;;;;27.08;49.41;100365.07;91339;1269;22934;-69
2023/07/15 06:00:13;;;;;;;2.20;1.00;;;;;;;27.13;48.96;100366.56;91222;1269;137801;-69
2023/07/15 06:02:15;;;;;;;4.40;4.00;;;;;;;27.18;49.78;100371.46;91328;1269;23111;-71
2023/07/15 06:04:17;;;;;;;3.40;1.20;;;;;;;27.30;49.35;100367.89;91254;1269;138841;-69
2023/07/15 06:08:58;;;;;;;2.50;1.50;;;;;;;27.31;49.63;100367.44;85528;1305;545681;-69
2023/07/15 06:10:59;;;;;;;3.40;3.20;;;;;;;27.41;49.46;100367.22;87273;1281;22532;-70
2023/07/15 06:13:01;;;;;;;2.00;1.30;;;;;;;27.51;49.73;100367.14;87194;1285;136647;-71
2023/07/15 06:15:04;;;;;;;2.80;2.40;;;;;;;27.65;49.13;100363.23;87298;1285;25458;-70
2023/07/15 06:17:06;;;;;;;3.40;1.70;;;;;;;27.62;47.60;100364.43;87280;1285;138403;-66
2023/07/15 06:19:08;;;;;;;5.10;0.90;;;;;;;27.52;47.91;100363.14;87334;1283;26622;-71
2023/07/15 06:21:10;;;;;;;2.70;1.60;;;;;;;27.45;48.26;100366.00;87036;1285;137298;-72
2023/07/15 06:23:13;;;;;;;3.90;1.90;;;;;;;27.41;48.11;100366.55;87358;1283;171321;-71
2023/07/15 06:25:16;;;;;;;1.80;0.60;;;;;;;27.36;48.58;100364.23;87420;1283;137776;-71
2023/07/15 06:27:18;;;;;;;0.80;0.70;;;;;;;27.42;48.19;100368.18;87756;1278;26650;-71
2023/07/15 06:29:19;;;;;;;4.80;2.20;;;;;;;27.50;47.56;100368.64;87563;1285;140175;-71
2023/07/15 06:31:22;;;;;;;2.90;0.40;;;;;;;27.47;47.45;100374.94;87715;1276;24311;-70
2023/07/15 06:33:24;;;;;;;1.10;0.30;;;;;;;27.44;48.15;100370.69;87573;1279;139572;-69
2023/07/15 15:27:00;;;;;;;1.50;0.10;;;;;;;25.62;38.86;100318.81;85660;1305;545289;-63
2023/07/15 15:29:02;;;;;;;1.30;0.10;;;;;;;25.66;38.60;100319.75;87637;1279;139088;-65
2023/07/15 15:31:04;;;;;;;1.60;0.50;;;;;;;25.68;38.84;100320.21;87405;1284;22551;-63
2023/07/15 15:33:06;;;;;;;0.20;0.10;;;;;;;25.69;38.99;100322.59;87306;1283;137013;-64
2023/07/15 15:35:08;;;;;;;1.00;0.30;;;;;;;25.68;39.31;100326.66;87419;1273;24241;-63
2023/07/15 15:37:10;;;;;;;1.50;0.20;;;;;;;25.65;39.41;100325.65;87377;1283;136957;-62
2023/07/15 15:39:12;;;;;;;1.60;0.80;;;;;;;25.66;39.34;100326.67;87515;1285;24321;-65
2023/07/15 15:41:14;;;;;;;2.90;2.70;;;;;;;25.66;39.03;100324.61;87147;1285;242973;-64
2023/07/15 15:43:16;;;;;;;0.30;0.20;;;;;;;25.64;38.74;100330.02;87468;1282;25483;-65
2023/07/15 15:45:17;;;;;;;1.70;0.90;;;;;;;25.63;38.70;100327.58;87330;1282;137222;-65
2023/07/15 15:47:19;;;;;;;0.90;0.70;;;;;;;25.60;39.24;100330.62;87441;1282;22658;-62
2023/07/15 15:49:21;;;;;;;2.00;0.30;;;;;;;25.52;39.08;100320.60;90452;1280;138241;-62
2023/07/15 15:51:23;;;;;;;0.80;0.30;;;;;;;25.56;39.20;100327.23;90667;1281;22358;-63
2023/07/15 15:53:25;;;;;;;0.70;0.70;;;;;;;25.53;39.31;100334.23;90409;1281;137544;-65
2023/07/15 15:55:26;;;;;;;1.30;1.20;;;;;;;25.54;39.40;100335.33;90664;1282;22320;-63
2023/07/15 15:57:28;;;;;;;0.90;0.50;;;;;;;25.54;39.52;100332.59;90530;1282;138396;-64
2023/07/15 15:59:30;;;;;;;0.40;0.40;;;;;;;25.52;39.53;100334.58;90640;1282;22353;-63
2023/07/15 16:01:32;;;;;;;2.20;2.10;;;;;;;25.50;39.69;100336.89;90909;1272;138299;-65
2023/07/15 16:03:33;;;;;;;0.70;0.60;;;;;;;25.49;39.90;100338.82;91012;1272;23091;-63
2023/07/15 16:05:35;;;;;;;1.10;0.40;;;;;;;25.48;40.48;100343.06;90822;1262;137951;-64
2023/07/15 16:07:37;;;;;;;1.30;0.20;;;;;;;25.42;40.52;100341.75;91058;1272;22381;-63
2023/07/15 16:09:39;;;;;;;5.80;5.40;;;;;;;25.39;40.48;100342.98;90964;1272;137564;-63
2023/07/15 16:11:40;;;;;;;1.50;0.70;;;;;;;25.38;40.57;100343.92;91068;1272;22211;-64
2023/07/15 16:13:42;;;;;;;0.60;0.50;;;;;;;25.38;40.71;100344.58;90958;1272;137215;-65
2023/07/15 16:15:46;;;;;;;0.40;0.20;;;;;;;25.38;40.76;100344.48;91033;1272;23149;-64
2023/07/15 16:17:48;;;;;;;0.50;0.20;;;;;;;25.34;40.17;100345.98;90949;1272;136866;-64
2023/07/15 16:19:49;;;;;;;0.90;0.50;;;;;;;25.32;40.28;100348.62;91081;1262;22408;-64
2023/07/15 16:21:51;;;;;;;4.00;2.30;;;;;;;25.31;40.58;100349.06;90927;1272;137830;-67
2023/07/15 16:23:53;;;;;;;2.30;0.60;;;;;;;25.31;40.54;100350.05;91102;1272;22332;-64
2023/07/15 16:25:55;;;;;;;2.40;1.60;;;;;;;25.31;40.27;100351.13;90828;1276;138641;-62
2023/07/15 16:27:56;;;;;;;0.30;0.20;;;;;;;25.30;40.37;100351.80;91094;1272;23114;-63
2023/07/15 16:29:58;;;;;;;0.50;0.20;;;;;;;25.28;40.50;100355.98;90822;1275;137108;-63
2023/07/15 16:32:00;;;;;;;0.50;0.20;;;;;;;25.25;40.63;100356.92;90934;1273;22391;-66
2023/07/15 16:34:01;;;;;;;3.00;0.30;;;;;;;25.23;41.00;100360.14;90976;1272;137990;-64
2023/07/15 16:36:03;;;;;;;2.70;1.10;;;;;;;25.20;41.24;100361.63;90970;1266;140214;-64
2023/07/15 16:38:05;;;;;;;1.20;0.50;;;;;;;25.18;41.37;100362.39;91060;1272;23239;-64
2023/07/15 16:40:08;;;;;;;0.40;0.30;;;;;;;25.20;41.52;100366.64;90977;1272;138568;-66
2023/07/15 16:42:09;;;;;;;0.60;0.30;;;;;;;25.19;41.80;100365.89;91030;1273;22144;-66
2023/07/15 16:44:11;;;;;;;1.90;1.80;;;;;;;25.16;41.91;100369.63;90970;1272;137729;-66
2023/07/15 16:46:13;;;;;;;0.80;0.30;;;;;;;25.13;41.95;100369.27;90971;1272;23679;-65
2023/07/15 16:48:15;;;;;;;3.30;3.20;;;;;;;25.10;42.23;100367.98;90908;1272;138235;-66
2023/07/15 16:50:17;;;;;;;0.50;0.50;;;;;;;25.07;42.59;100368.16;91073;1272;22348;-62
2023/07/15 16:52:19;;;;;;;0.80;0.20;;;;;;;25.03;42.78;100369.61;90940;1261;138286;-63
2023/07/15 16:54:20;;;;;;;9.00;1.00;;;;;;;24.99;43.05;100373.02;91008;1273;22419;-63
2023/07/15 16:56:22;;;;;;;0.60;0.50;;;;;;;24.95;43.31;100372.56;90828;1275;137355;-65
2023/07/15 16:58:24;;;;;;;0.70;0.30;;;;;;;24.92;43.24;100368.23;91062;1272;22268;-64
2023/07/15 17:00:25;;;;;;;0.50;0.40;;;;;;;24.91;43.25;100371.05;90954;1272;138207;-64
2023/07/15 17:02:27;;;;;;;0.60;0.60;;;;;;;24.91;43.22;100371.61;91061;1272;22342;-62
2023/07/15 17:04:30;;;;;;;0.50;0.50;;;;;;;24.91;43.45;100369.74;90864;1275;137203;-65
2023/07/15 17:06:32;;;;;;;5.00;0.70;;;;;;;24.90;43.50;100368.24;91033;1272;22403;-67
2023/07/15 17:08:33;;;;;;;5.70;0.50;;;;;;;24.87;43.73;100371.86;90806;1273;137023;-63
2023/07/15 17:10:35;;;;;;;1.60;1.00;;;;;;;24.83;43.62;100370.23;90908;1276;22411;-62
2023/07/15 17:12:36;;;;;;;2.60;2.40;;;;;;;24.82;43.56;100375.59;90955;1272;138110;-64
2023/07/15 17:14:38;;;;;;;1.60;0.50;;;;;;;24.82;43.57;100374.83;90957;1272;22796;-64
2023/07/15 17:16:40;;;;;;;4.00;0.80;;;;;;;24.82;43.40;100378.70;90924;1272;139683;-63
2023/07/15 17:18:42;;;;;;;0.90;0.50;;;;;;;24.82;43.39;100380.83;91036;1273;22339;-64
2023/07/15 17:20:44;;;;;;;0.90;0.90;;;;;;;24.81;43.20;100380.35;90968;1272;137412;-64
2023/07/15 17:22:45;;;;;;;1.10;1.00;;;;;;;24.81;43.07;100380.17;90933;1275;23233;-66
2023/07/15 17:24:48;;;;;;;1.00;0.90;;;;;;;24.76;43.23;100375.95;90964;1272;138598;-66
2023/07/15 17:26:50;;;;;;;2.90;0.70;;;;;;;24.80;43.30;100384.48;91049;1272;22126;-64
2023/07/15 17:28:51;;;;;;;5.30;1.00;;;;;;;24.78;43.21;100382.27;90779;1273;137083;-63
2023/07/15 17:30:53;;;;;;;0.50;0.50;;;;;;;24.75;43.31;100383.98;91070;1273;22786;-63
2023/07/15 17:32:56;;;;;;;2.00;1.00;;;;;;;24.71;43.25;100383.83;90959;1272;137869;-62
2023/07/15 17:34:57;;;;;;;3.90;1.10;;;;;;;24.66;43.15;100383.54;91037;1272;22383;-63
2023/07/15 17:36:59;;;;;;;3.30;3.00;;;;;;;24.64;43.29;100385.02;90803;1275;138099;-62
2023/07/15 17:39:01;;;;;;;6.90;6.30;;;;;;;24.62;43.55;100388.36;91059;1272;23071;-65
2023/07/15 17:41:02;;;;;;;2.40;2.20;;;;;;;24.58;43.70;100389.20;90965;1273;137947;-63
2023/07/15 17:43:04;;;;;;;6.60;6.10;;;;;;;24.55;43.70;100391.50;91060;1273;22345;-62
2023/07/15 17:45:06;;;;;;;2.80;2.60;;;;;;;24.51;43.90;100393.30;90988;1272;137041;-62
2023/07/15 17:47:08;;;;;;;3.80;3.60;;;;;;;24.45;44.08;100397.19;91001;1262;22393;-62
2023/07/15 17:49:09;;;;;;;1.70;1.60;;;;;;;24.39;44.28;100397.66;90946;1273;138488;-62
2023/07/15 17:51:11;;;;;;;7.70;6.90;;;;;;;24.34;44.29;100397.57;91097;1273;23095;-64
2023/07/15 17:53:17;;;;;;;9.70;8.80;;;;;;;24.29;44.27;100403.58;91015;1260;138035;-62
2023/07/15 17:55:18;;;;;;;4.10;3.80;;;;;;;24.27;44.27;100405.20;91078;1273;23141;-65
2023/07/15 17:57:26;;;;;;;6.50;6.00;;;;;;;24.23;44.23;100406.27;90982;1272;137357;-62
2023/07/15 17:59:27;;;;;;;10.60;9.50;;;;;;;24.20;44.46;100407.68;91086;1273;22447;-63
2023/07/15 18:01:29;;;;;;;6.50;6.00;;;;;;;24.16;44.39;100408.58;90952;1273;137096;-62
2023/07/15 18:03:31;;;;;;;3.40;2.30;;;;;;;24.10;44.52;100408.76;91124;1272;22143;-66
2023/07/15 18:05:33;;;;;;;4.20;1.60;;;;;;;24.04;44.33;100407.46;90846;1273;138829;-62
2023/07/15 18:07:35;;;;;;;3.90;2.00;;;;;;;24.00;44.50;100412.27;91095;1273;22251;-66
2023/07/15 18:09:36;;;;;;;2.50;2.30;;;;;;;24.00;44.29;100413.85;90862;1275;137243;-64
2023/07/15 18:11:39;;;;;;;11.60;10.70;;;;;;;23.98;44.20;100414.89;91117;1273;22593;-67
2023/07/15 18:13:42;;;;;;;3.60;1.50;;;;;;;23.92;44.58;100417.13;90946;1272;137462;-64
2023/07/15 18:15:44;;;;;;;12.50;11.50;;;;;;;23.88;44.63;100417.19;91323;1269;22423;-63
2023/07/15 18:17:46;;;;;;;3.70;2.50;;;;;;;23.85;44.77;100416.81;91277;1269;138524;-64
2023/07/15 18:19:47;;;;;;;5.90;5.40;;;;;;;23.81;44.65;100421.45;91336;1269;22284;-64